Time;durP1;ratioP1;P1;durP2;ratioP2;P2;SDS_P1;SDS_P2;PMS_P1;PMS_P2;Temp;Humidity;BMP_temperature;BMP_pressure;BME280_temperature;BME280_humidity;BME280_pressure;Samples;Min_cycle;Max_cycle;Signal;HPM_P1;HPM_P2
2023/05/29 00:01:27;;;;;;;12.38;3.67;;;;;;;;;;4885676;29;20041;-83
2023/05/29 00:03:53;;;;;;;9.30;4.38;;;;;;;;;;4886778;29;20112;-82
2023/05/29 00:06:21;;;;;;;9.23;4.20;;;;;;;;;;4881862;29;20025;-83
2023/05/29 00:08:46;;;;;;;8.27;4.20;;;;;;;;;;4881800;29;20045;-84
2023/05/29 00:11:12;;;;;;;8.52;3.65;;;;;;;;;;4878089;29;20048;-82
2023/05/29 00:13:37;;;;;;;9.70;3.90;;;;;;;;;;4882287;29;20032;-84
2023/05/29 00:16:04;;;;;;;7.07;3.92;;;;;;;;;;4880106;29;20322;-84
2023/05/29 00:18:30;;;;;;;6.95;3.90;;;;;;;;;;4880255;29;20126;-81
2023/05/29 00:20:55;;;;;;;7.43;4.15;;;;;;;;;;4884807;29;20433;-82
2023/05/29 00:23:21;;;;;;;10.43;4.53;;;;;;;;;;4885626;29;20036;-83
2023/05/29 00:25:47;;;;;;;9.00;4.00;;;;;;;;;;4871070;29;20024;-82
2023/05/29 00:28:12;;;;;;;7.88;3.53;;;;;;;;;;4881695;29;20029;-81
2023/05/29 00:30:39;;;;;;;7.38;3.80;;;;;;;;;;4884233;29;20032;-80
2023/05/29 00:33:05;;;;;;;8.68;3.85;;;;;;;;;;4867535;29;20092;-82
2023/05/29 00:35:30;;;;;;;7.80;3.80;;;;;;;;;;4876166;29;20053;-82
2023/05/29 00:37:55;;;;;;;10.48;4.45;;;;;;;;;;4882811;29;20649;-83
2023/05/29 00:40:21;;;;;;;10.77;4.68;;;;;;;;;;4881994;29;20040;-83
2023/05/29 00:42:46;;;;;;;7.50;4.15;;;;;;;;;;4877013;29;20032;-82
2023/05/29 00:45:13;;;;;;;9.82;4.00;;;;;;;;;;4891393;29;20036;-81
2023/05/29 00:47:39;;;;;;;6.57;4.03;;;;;;;;;;4890728;29;20032;-83
2023/05/29 00:50:06;;;;;;;9.20;4.20;;;;;;;;;;4884206;29;20033;-81
2023/05/29 00:52:32;;;;;;;11.95;4.57;;;;;;;;;;4890735;29;20032;-83
2023/05/29 00:55:00;;;;;;;9.57;4.40;;;;;;;;;;4870167;29;20136;-82
2023/05/29 00:57:25;;;;;;;11.00;4.32;;;;;;;;;;4883606;29;20087;-83
2023/05/29 00:59:51;;;;;;;10.18;4.20;;;;;;;;;;4880798;29;20328;-83
2023/05/29 01:02:16;;;;;;;7.25;3.97;;;;;;;;;;4869128;29;20032;-82
2023/05/29 01:04:43;;;;;;;8.32;4.38;;;;;;;;;;4886372;29;20104;-83
2023/05/29 01:07:09;;;;;;;11.32;4.40;;;;;;;;;;4891529;29;20025;-82
2023/05/29 01:09:36;;;;;;;9.40;4.53;;;;;;;;;;4882026;29;20036;-82
2023/05/29 01:12:18;;;;;;;7.55;4.38;;;;;;;;;;4886203;29;20036;-83
2023/05/29 01:15:24;;;;;;;8.70;4.50;;;;;;;;;;4878626;29;20055;-82
2023/05/29 01:17:59;;;;;;;7.32;3.78;;;;;;;;;;4886183;29;20063;-83
2023/05/29 01:20:35;;;;;;;8.90;4.38;;;;;;;;;;4881418;29;20045;-84
2023/05/29 01:23:03;;;;;;;9.82;4.47;;;;;;;;;;4893927;29;20029;-84
2023/05/29 01:25:47;;;;;;;7.85;4.30;;;;;;;;;;4882366;29;20036;-84
2023/05/29 01:28:14;;;;;;;9.70;4.07;;;;;;;;;;4889639;29;20124;-83
2023/05/29 01:30:40;;;;;;;7.30;4.53;;;;;;;;;;4870714;29;20048;-83
2023/05/29 01:33:06;;;;;;;15.77;4.43;;;;;;;;;;4883024;29;20157;-83
2023/05/29 01:35:32;;;;;;;7.50;4.05;;;;;;;;;;4882837;29;20049;-83
2023/05/29 01:37:57;;;;;;;8.13;3.97;;;;;;;;;;4883194;29;20096;-84
2023/05/29 01:40:22;;;;;;;13.38;4.07;;;;;;;;;;4883498;29;20035;-83
2023/05/29 01:42:49;;;;;;;8.35;4.18;;;;;;;;;;4908121;29;20017;-81
2023/05/29 01:45:16;;;;;;;12.73;4.40;;;;;;;;;;4898003;29;20124;-80
2023/05/29 01:47:42;;;;;;;9.18;4.53;;;;;;;;;;4892246;29;20172;-82
2023/05/29 01:50:09;;;;;;;8.45;3.95;;;;;;;;;;4890935;29;20103;-82
2023/05/29 01:52:35;;;;;;;5.57;3.33;;;;;;;;;;4893794;29;20044;-82
2023/05/29 01:55:00;;;;;;;8.13;4.03;;;;;;;;;;4869345;29;20029;-82
2023/05/29 01:57:26;;;;;;;7.32;4.30;;;;;;;;;;4882001;29;20036;-83
2023/05/29 01:59:51;;;;;;;10.13;4.35;;;;;;;;;;4893338;29;20024;-82
2023/05/29 02:02:17;;;;;;;9.82;4.05;;;;;;;;;;4904052;29;20096;-82
2023/05/29 02:04:42;;;;;;;10.60;4.10;;;;;;;;;;4894662;29;20100;-83
2023/05/29 02:07:08;;;;;;;6.53;3.28;;;;;;;;;;4865952;29;20030;-83
2023/05/29 02:09:35;;;;;;;6.18;3.60;;;;;;;;;;4886177;29;20419;-84
2023/05/29 02:12:01;;;;;;;9.00;3.92;;;;;;;;;;4890185;29;20085;-84
2023/05/29 02:14:27;;;;;;;5.70;3.42;;;;;;;;;;4883368;29;20025;-82
2023/05/29 02:16:52;;;;;;;6.05;3.70;;;;;;;;;;4882401;29;20023;-82
2023/05/29 02:19:19;;;;;;;7.32;3.85;;;;;;;;;;4880289;29;20037;-84
2023/05/29 02:21:44;;;;;;;6.75;3.58;;;;;;;;;;4878424;29;20080;-84
2023/05/29 02:24:10;;;;;;;6.78;3.95;;;;;;;;;;4901307;29;20029;-84
2023/05/29 02:26:38;;;;;;;11.60;4.43;;;;;;;;;;4887285;29;20043;-84
2023/05/29 02:29:06;;;;;;;7.50;3.88;;;;;;;;;;4892318;29;20029;-84
2023/05/29 02:31:31;;;;;;;5.70;3.55;;;;;;;;;;4896549;29;20029;-84
2023/05/29 02:33:57;;;;;;;6.15;3.40;;;;;;;;;;4891046;29;20035;-82
2023/05/29 02:36:23;;;;;;;6.97;3.58;;;;;;;;;;4888062;29;20063;-84
2023/05/29 02:38:48;;;;;;;11.13;4.05;;;;;;;;;;4891000;29;20029;-84
2023/05/29 02:41:13;;;;;;;6.15;3.30;;;;;;;;;;4881281;29;20113;-83
2023/05/29 02:43:39;;;;;;;8.57;4.00;;;;;;;;;;4885759;29;20041;-84
2023/05/29 02:46:04;;;;;;;6.93;3.47;;;;;;;;;;4896755;29;20029;-80
2023/05/29 02:48:29;;;;;;;7.38;3.95;;;;;;;;;;4889525;29;20140;-79
2023/05/29 02:50:55;;;;;;;9.63;3.88;;;;;;;;;;4882123;29;20065;-84
2023/05/29 02:53:20;;;;;;;7.47;3.65;;;;;;;;;;4881329;29;20064;-83
2023/05/29 02:55:46;;;;;;;9.60;4.03;;;;;;;;;;4886534;29;20039;-84
2023/05/29 02:58:12;;;;;;;9.10;3.80;;;;;;;;;;4884695;29;20031;-83
2023/05/29 03:00:38;;;;;;;6.32;3.72;;;;;;;;;;4878460;29;20399;-84
2023/05/29 03:03:03;;;;;;;6.55;3.72;;;;;;;;;;4890208;29;20029;-83
2023/05/29 03:05:29;;;;;;;7.40;3.90;;;;;;;;;;4873210;29;20033;-82
2023/05/29 03:07:55;;;;;;;7.85;3.60;;;;;;;;;;4887156;29;20048;-83
2023/05/29 03:10:20;;;;;;;8.52;3.92;;;;;;;;;;4882834;29;20164;-82
2023/05/29 03:12:46;;;;;;;6.65;3.45;;;;;;;;;;4890310;29;20058;-83
2023/05/29 03:15:12;;;;;;;7.75;3.90;;;;;;;;;;4881811;29;20036;-83
2023/05/29 03:17:38;;;;;;;7.60;3.97;;;;;;;;;;4881418;29;20030;-84
2023/05/29 03:20:07;;;;;;;5.80;3.53;;;;;;;;;;4879427;29;20029;-82
2023/05/29 03:22:34;;;;;;;6.68;3.75;;;;;;;;;;4862524;29;20058;-82
2023/05/29 03:25:01;;;;;;;7.03;3.72;;;;;;;;;;4872508;29;20096;-82
2023/05/29 03:27:27;;;;;;;8.55;3.85;;;;;;;;;;4878985;29;20040;-84
2023/05/29 03:29:52;;;;;;;8.45;3.85;;;;;;;;;;4880213;29;20032;-82
2023/05/29 03:32:18;;;;;;;8.00;4.05;;;;;;;;;;4883512;29;20403;-83
2023/05/29 03:34:43;;;;;;;10.32;3.95;;;;;;;;;;4890007;29;20040;-82
2023/05/29 03:37:08;;;;;;;9.93;3.45;;;;;;;;;;4884274;29;20037;-84
2023/05/29 03:39:35;;;;;;;6.40;3.90;;;;;;;;;;4885341;29;20080;-83
2023/05/29 03:42:02;;;;;;;6.25;4.03;;;;;;;;;;4878405;29;20029;-83
2023/05/29 03:44:28;;;;;;;10.68;4.20;;;;;;;;;;4892171;29;20032;-83
2023/05/29 03:46:54;;;;;;;12.25;4.22;;;;;;;;;;4884707;29;20451;-82
2023/05/29 03:49:19;;;;;;;7.22;3.53;;;;;;;;;;4873430;29;20067;-83
2023/05/29 03:51:44;;;;;;;7.47;3.88;;;;;;;;;;4894734;29;20039;-83
2023/05/29 03:54:10;;;;;;;7.85;3.85;;;;;;;;;;4887106;29;20064;-82
2023/05/29 03:56:35;;;;;;;6.53;4.07;;;;;;;;;;4889750;29;20092;-83
2023/05/29 03:59:01;;;;;;;9.35;4.18;;;;;;;;;;4873706;29;20032;-83
2023/05/29 04:01:26;;;;;;;6.60;4.22;;;;;;;;;;4887243;29;20114;-83
2023/05/29 04:03:53;;;;;;;7.43;4.50;;;;;;;;;;4885820;29;20024;-83
2023/05/29 04:06:18;;;;;;;9.63;4.40;;;;;;;;;;4871467;29;20067;-83
2023/05/29 04:08:43;;;;;;;8.30;4.07;;;;;;;;;;4874935;29;20018;-84
2023/05/29 04:11:11;;;;;;;6.13;3.90;;;;;;;;;;4894456;29;20021;-84
2023/05/29 04:13:37;;;;;;;5.70;3.65;;;;;;;;;;4886929;29;20036;-83
2023/05/29 04:16:03;;;;;;;9.63;3.92;;;;;;;;;;4896063;29;20029;-84
2023/05/29 04:18:28;;;;;;;6.38;3.80;;;;;;;;;;4892494;29;20025;-84
2023/05/29 04:20:54;;;;;;;7.72;3.67;;;;;;;;;;4886492;29;20068;-83
2023/05/29 04:23:20;;;;;;;7.28;4.05;;;;;;;;;;4890067;29;20036;-82
2023/05/29 04:25:45;;;;;;;6.80;3.53;;;;;;;;;;4897197;29;20028;-83
2023/05/29 04:28:11;;;;;;;5.70;3.45;;;;;;;;;;4897108;29;20051;-83
2023/05/29 04:30:38;;;;;;;9.90;3.78;;;;;;;;;;4905102;29;20028;-83
2023/05/29 04:33:04;;;;;;;11.02;4.10;;;;;;;;;;4890287;29;20021;-84
2023/05/29 04:35:30;;;;;;;6.85;3.78;;;;;;;;;;4894870;29;20044;-84
2023/05/29 04:37:56;;;;;;;6.07;3.83;;;;;;;;;;4889641;29;20036;-84
2023/05/29 04:40:22;;;;;;;7.53;3.78;;;;;;;;;;4890429;29;20041;-83
2023/05/29 04:42:47;;;;;;;12.05;4.35;;;;;;;;;;4886218;29;20036;-82
2023/05/29 04:45:12;;;;;;;6.00;3.15;;;;;;;;;;4896103;29;20037;-82
2023/05/29 04:47:44;;;;;;;6.78;3.63;;;;;;;;;;4892207;29;20559;-83
2023/05/29 04:50:13;;;;;;;8.38;3.53;;;;;;;;;;4884370;29;20071;-83
2023/05/29 04:52:39;;;;;;;8.45;3.35;;;;;;;;;;4897806;29;20040;-83
2023/05/29 04:55:05;;;;;;;8.98;3.92;;;;;;;;;;4893451;29;20093;-83
2023/05/29 04:57:31;;;;;;;6.63;3.53;;;;;;;;;;4887902;29;20041;-82
2023/05/29 04:59:56;;;;;;;8.57;4.43;;;;;;;;;;4885419;29;20039;-83
2023/05/29 05:02:21;;;;;;;6.45;3.50;;;;;;;;;;4897463;29;20091;-83
2023/05/29 05:04:47;;;;;;;7.53;3.70;;;;;;;;;;4884302;29;20042;-82
2023/05/29 05:07:13;;;;;;;6.20;3.70;;;;;;;;;;4887932;29;20032;-82
2023/05/29 05:09:38;;;;;;;8.32;3.28;;;;;;;;;;4885144;29;20029;-82
2023/05/29 05:12:04;;;;;;;7.22;3.50;;;;;;;;;;4896768;29;20604;-85
2023/05/29 05:14:29;;;;;;;9.40;3.47;;;;;;;;;;4891837;29;20037;-84
2023/05/29 05:16:54;;;;;;;7.25;3.85;;;;;;;;;;4872460;29;20125;-84
2023/05/29 05:19:20;;;;;;;5.38;3.20;;;;;;;;;;4902095;29;20024;-85
2023/05/29 05:21:45;;;;;;;8.13;3.50;;;;;;;;;;4887158;29;20472;-84
2023/05/29 05:24:10;;;;;;;7.13;3.25;;;;;;;;;;4890323;29;20055;-82
2023/05/29 05:26:36;;;;;;;10.02;3.60;;;;;;;;;;4872115;29;20033;-85
2023/05/29 05:29:01;;;;;;;7.65;3.60;;;;;;;;;;4900173;29;20479;-81
2023/05/29 05:31:26;;;;;;;8.25;3.33;;;;;;;;;;4897381;29;20036;-82
2023/05/29 05:33:52;;;;;;;8.15;3.45;;;;;;;;;;4889212;29;20029;-84
2023/05/29 05:36:18;;;;;;;7.57;3.60;;;;;;;;;;4901584;29;20065;-84
2023/05/29 05:38:43;;;;;;;7.43;4.30;;;;;;;;;;4905168;29;20037;-84
2023/05/29 05:41:09;;;;;;;8.00;3.75;;;;;;;;;;4895447;29;20113;-84
2023/05/29 05:43:35;;;;;;;10.38;3.80;;;;;;;;;;4901771;29;20034;-82
2023/05/29 05:46:00;;;;;;;5.85;3.50;;;;;;;;;;4894700;29;20028;-83
2023/05/29 05:48:26;;;;;;;7.63;4.22;;;;;;;;;;4910620;29;20021;-81
2023/05/29 05:50:51;;;;;;;7.55;3.92;;;;;;;;;;4894767;29;20048;-82
2023/05/29 05:53:16;;;;;;;16.17;6.80;;;;;;;;;;4897137;29;20033;-82
2023/05/29 05:55:42;;;;;;;8.27;4.25;;;;;;;;;;4892695;29;20078;-82
2023/05/29 05:58:07;;;;;;;6.88;3.72;;;;;;;;;;4873279;29;20060;-84
2023/05/29 06:00:33;;;;;;;7.40;3.78;;;;;;;;;;4898746;29;20029;-83
2023/05/29 06:03:00;;;;;;;7.35;3.10;;;;;;;;;;4900514;29;20097;-83
2023/05/29 06:05:25;;;;;;;6.55;3.22;;;;;;;;;;4893563;29;20510;-83
2023/05/29 06:07:51;;;;;;;8.82;3.63;;;;;;;;;;4897011;29;20024;-83
2023/05/29 06:10:16;;;;;;;9.07;3.63;;;;;;;;;;4888471;29;20093;-83
2023/05/29 06:12:41;;;;;;;7.47;3.70;;;;;;;;;;4894702;29;20040;-83
2023/05/29 06:15:07;;;;;;;5.65;3.15;;;;;;;;;;4895166;29;20033;-83
2023/05/29 06:17:33;;;;;;;5.35;3.20;;;;;;;;;;4892673;29;20115;-83
2023/05/29 06:19:58;;;;;;;6.15;3.10;;;;;;;;;;4883095;29;20029;-83
2023/05/29 06:22:23;;;;;;;9.60;4.13;;;;;;;;;;4887812;29;20032;-82
2023/05/29 06:24:49;;;;;;;6.28;3.20;;;;;;;;;;4872539;29;20023;-83
2023/05/29 06:27:14;;;;;;;5.07;3.20;;;;;;;;;;4890248;29;20028;-82
2023/05/29 06:29:40;;;;;;;7.40;3.55;;;;;;;;;;4891486;29;20040;-83
2023/05/29 06:32:05;;;;;;;6.65;3.50;;;;;;;;;;4898744;29;20043;-83
2023/05/29 06:34:31;;;;;;;8.50;3.38;;;;;;;;;;4899175;29;20048;-83
2023/05/29 06:36:56;;;;;;;5.40;3.22;;;;;;;;;;4897778;29;20033;-82
2023/05/29 06:39:22;;;;;;;7.15;3.05;;;;;;;;;;4898576;29;20064;-82
2023/05/29 06:41:47;;;;;;;5.65;2.83;;;;;;;;;;4899684;29;20036;-83
2023/05/29 06:44:12;;;;;;;8.20;3.17;;;;;;;;;;4894278;29;20013;-83
2023/05/29 06:46:38;;;;;;;7.55;3.20;;;;;;;;;;4877915;29;20037;-83
2023/05/29 06:49:03;;;;;;;8.07;3.13;;;;;;;;;;4866666;29;20116;-81
2023/05/29 06:51:29;;;;;;;8.15;3.15;;;;;;;;;;4869257;29;20048;-82
2023/05/29 06:53:54;;;;;;;5.30;3.25;;;;;;;;;;4876726;29;20084;-81
2023/05/29 06:56:20;;;;;;;6.22;3.00;;;;;;;;;;4896579;29;20012;-82
2023/05/29 06:58:46;;;;;;;4.10;2.88;;;;;;;;;;4897742;29;20024;-81
2023/05/29 07:01:11;;;;;;;5.82;2.78;;;;;;;;;;4895948;29;20396;-83
2023/05/29 07:03:37;;;;;;;6.70;3.20;;;;;;;;;;4891094;29;20037;-81
2023/05/29 07:06:03;;;;;;;7.03;3.10;;;;;;;;;;4873074;29;20100;-82
2023/05/29 07:08:29;;;;;;;6.97;3.15;;;;;;;;;;4891412;29;20017;-82
2023/05/29 07:10:55;;;;;;;5.93;2.67;;;;;;;;;;4877474;29;20047;-82
2023/05/29 07:13:20;;;;;;;6.30;2.65;;;;;;;;;;4892473;29;20029;-82
2023/05/29 07:15:46;;;;;;;7.00;2.42;;;;;;;;;;4887029;29;20040;-81
2023/05/29 07:18:11;;;;;;;5.75;2.88;;;;;;;;;;4875845;29;20025;-80
2023/05/29 07:20:37;;;;;;;5.10;2.63;;;;;;;;;;4896620;29;20013;-81
2023/05/29 07:23:03;;;;;;;6.95;2.80;;;;;;;;;;4914435;29;20024;-82
2023/05/29 07:25:47;;;;;;;5.53;3.05;;;;;;;;;;4890092;29;20039;-83
2023/05/29 07:28:13;;;;;;;5.13;3.03;;;;;;;;;;4891519;29;20025;-83
2023/05/29 07:30:38;;;;;;;4.35;2.80;;;;;;;;;;4890906;29;20029;-83
2023/05/29 07:33:04;;;;;;;6.72;3.08;;;;;;;;;;4888782;29;20029;-83
2023/05/29 07:35:32;;;;;;;6.03;2.88;;;;;;;;;;4889792;29;20040;-84
2023/05/29 07:37:58;;;;;;;7.88;2.67;;;;;;;;;;4888583;29;20033;-84
2023/05/29 07:40:23;;;;;;;8.88;3.28;;;;;;;;;;4888104;29;20155;-84
2023/05/29 07:42:49;;;;;;;4.72;2.55;;;;;;;;;;4890340;29;20029;-84
2023/05/29 07:45:14;;;;;;;6.30;3.25;;;;;;;;;;4886416;29;20033;-78
2023/05/29 07:47:40;;;;;;;6.07;3.17;;;;;;;;;;4881893;29;20025;-79
2023/05/29 07:50:06;;;;;;;7.03;3.10;;;;;;;;;;4884228;29;20085;-80
2023/05/29 07:52:31;;;;;;;4.40;2.45;;;;;;;;;;4893228;29;20100;-79
2023/05/29 07:54:57;;;;;;;6.60;2.80;;;;;;;;;;4884148;29;20025;-80
2023/05/29 07:57:23;;;;;;;8.32;3.25;;;;;;;;;;4886369;29;20108;-78
2023/05/29 07:59:51;;;;;;;5.57;3.17;;;;;;;;;;4897009;29;20060;-80
2023/05/29 08:02:16;;;;;;;5.75;2.97;;;;;;;;;;4893796;29;20089;-80
2023/05/29 08:04:42;;;;;;;4.95;2.85;;;;;;;;;;4886908;29;20036;-83
2023/05/29 08:07:08;;;;;;;5.35;2.85;;;;;;;;;;4874197;29;20057;-83
2023/05/29 08:09:35;;;;;;;6.18;2.85;;;;;;;;;;4893756;29;20083;-80
2023/05/29 08:12:00;;;;;;;5.43;3.20;;;;;;;;;;4889166;29;20029;-84
2023/05/29 08:14:26;;;;;;;5.82;2.70;;;;;;;;;;4883314;29;20036;-84
2023/05/29 08:16:51;;;;;;;3.13;2.50;;;;;;;;;;4887213;29;20033;-83
2023/05/29 08:19:17;;;;;;;5.20;2.83;;;;;;;;;;4890832;29;20574;-83
2023/05/29 08:21:42;;;;;;;5.75;3.10;;;;;;;;;;4871095;29;20033;-84
2023/05/29 08:24:08;;;;;;;12.25;2.95;;;;;;;;;;4888353;29;20371;-82
2023/05/29 08:26:34;;;;;;;5.13;3.00;;;;;;;;;;4876490;29;20051;-84
2023/05/29 08:29:00;;;;;;;4.82;3.00;;;;;;;;;;4884589;29;20025;-84
2023/05/29 08:31:26;;;;;;;7.10;3.25;;;;;;;;;;4886798;29;20028;-85
2023/05/29 08:33:53;;;;;;;9.30;3.30;;;;;;;;;;4885428;29;20037;-83
2023/05/29 08:36:21;;;;;;;8.68;2.80;;;;;;;;;;4884752;29;20619;-82
2023/05/29 08:38:50;;;;;;;6.45;2.90;;;;;;;;;;4885047;29;20052;-84
2023/05/29 08:41:29;;;;;;;5.82;2.75;;;;;;;;;;4891016;29;20497;-84
2023/05/29 08:43:55;;;;;;;6.40;2.92;;;;;;;;;;4891379;29;20123;-84
2023/05/29 08:46:20;;;;;;;5.10;3.03;;;;;;;;;;4876237;29;20025;-85
2023/05/29 08:48:49;;;;;;;4.47;2.83;;;;;;;;;;4892368;29;20123;-83
2023/05/29 08:51:18;;;;;;;5.95;3.10;;;;;;;;;;4878192;29;20085;-82
2023/05/29 08:54:02;;;;;;;5.20;2.60;;;;;;;;;;4893369;29;20033;-84
2023/05/29 08:56:28;;;;;;;9.82;3.20;;;;;;;;;;4889046;29;20135;-84
2023/05/29 08:58:53;;;;;;;4.25;2.80;;;;;;;;;;4889342;29;20047;-82
2023/05/29 09:01:21;;;;;;;3.97;2.58;;;;;;;;;;4883420;29;20115;-82
2023/05/29 09:03:47;;;;;;;5.63;2.63;;;;;;;;;;4889205;29;20029;-84
2023/05/29 09:06:12;;;;;;;7.07;2.92;;;;;;;;;;4894491;29;20139;-82
2023/05/29 09:08:38;;;;;;;6.32;2.85;;;;;;;;;;4891796;29;20029;-82
2023/05/29 09:11:04;;;;;;;6.35;3.25;;;;;;;;;;4872080;29;20059;-82
2023/05/29 09:13:29;;;;;;;9.25;3.08;;;;;;;;;;4886433;29;20140;-84
2023/05/29 09:16:03;;;;;;;6.07;3.10;;;;;;;;;;4875345;29;20044;-82
2023/05/29 09:18:32;;;;;;;4.63;2.88;;;;;;;;;;4892636;29;20049;-83
2023/05/29 09:20:58;;;;;;;5.82;3.05;;;;;;;;;;4891763;29;20038;-81
2023/05/29 09:23:25;;;;;;;5.38;3.30;;;;;;;;;;4891955;29;20051;-82
2023/05/29 09:25:53;;;;;;;3.92;3.20;;;;;;;;;;4896618;29;20040;-83
2023/05/29 09:28:20;;;;;;;4.95;2.90;;;;;;;;;;4901592;29;20054;-78
2023/05/29 09:30:49;;;;;;;7.32;3.15;;;;;;;;;;4891741;29;20084;-84
2023/05/29 09:33:16;;;;;;;4.47;2.35;;;;;;;;;;4886012;29;20445;-83
2023/05/29 09:35:46;;;;;;;8.27;3.13;;;;;;;;;;4886785;29;20041;-83
2023/05/29 09:38:13;;;;;;;5.18;3.15;;;;;;;;;;4882318;29;20392;-80
2023/05/29 09:40:40;;;;;;;4.20;2.53;;;;;;;;;;4876954;29;20044;-78
2023/05/29 09:43:10;;;;;;;5.88;3.13;;;;;;;;;;4885717;29;20452;-76
2023/05/29 09:45:39;;;;;;;3.67;2.75;;;;;;;;;;4882880;29;20395;-75
2023/05/29 09:48:12;;;;;;;4.32;3.05;;;;;;;;;;4885700;29;20021;-76
2023/05/29 09:50:37;;;;;;;5.57;3.03;;;;;;;;;;4886321;29;20420;-77
2023/05/29 09:53:03;;;;;;;6.30;2.63;;;;;;;;;;4890553;29;20032;-80
2023/05/29 09:55:31;;;;;;;3.38;2.50;;;;;;;;;;4882292;29;20484;-79
2023/05/29 09:57:58;;;;;;;8.10;3.28;;;;;;;;;;4889537;29;20025;-78
2023/05/29 10:00:24;;;;;;;4.43;2.70;;;;;;;;;;4877328;29;20119;-77
2023/05/29 10:02:49;;;;;;;7.22;3.10;;;;;;;;;;4896471;29;20551;-83
2023/05/29 10:05:18;;;;;;;5.65;3.05;;;;;;;;;;4896642;29;20032;-82
2023/05/29 10:07:47;;;;;;;4.85;2.55;;;;;;;;;;4864653;29;20025;-81
2023/05/29 10:10:14;;;;;;;8.00;2.72;;;;;;;;;;4868202;29;20107;-82
2023/05/29 10:12:44;;;;;;;12.52;3.08;;;;;;;;;;4883761;29;20032;-82
2023/05/29 10:15:14;;;;;;;5.45;2.83;;;;;;;;;;4882299;29;20044;-81
2023/05/29 10:17:47;;;;;;;6.35;3.08;;;;;;;;;;4892153;29;20032;-82
2023/05/29 10:20:16;;;;;;;7.30;2.90;;;;;;;;;;4872229;29;20057;-78
2023/05/29 10:22:46;;;;;;;6.03;2.70;;;;;;;;;;4865578;29;20029;-78
2023/05/29 10:25:13;;;;;;;3.60;2.50;;;;;;;;;;4886430;29;20239;-84
2023/05/29 10:27:39;;;;;;;8.32;2.72;;;;;;;;;;4892074;29;20395;-86
2023/05/29 10:30:13;;;;;;;6.15;2.20;;;;;;;;;;4874481;29;20025;-84
2023/05/29 10:33:00;;;;;;;9.77;2.80;;;;;;;;;;4872933;29;20060;-83
2023/05/29 10:35:56;;;;;;;4.20;2.67;;;;;;;;;;4886515;29;20029;-84
2023/05/29 10:38:21;;;;;;;6.25;2.90;;;;;;;;;;4868127;29;20097;-84
2023/05/29 10:44:41;;;;;;;;;;;;;;;;;;4892999;29;20452;-84
2023/05/29 10:47:08;;;;;;;5.80;3.03;;;;;;;;;;4857603;29;19999;-83
2023/05/29 10:49:34;;;;;;;5.05;2.38;;;;;;;;;;4890713;29;20029;-83
2023/05/29 10:52:00;;;;;;;5.65;2.50;;;;;;;;;;4888389;29;20041;-83
2023/05/29 10:54:26;;;;;;;3.38;2.20;;;;;;;;;;4879368;29;20492;-85
2023/05/29 10:57:01;;;;;;;6.55;2.83;;;;;;;;;;4879394;29;20072;-77
2023/05/29 10:59:28;;;;;;;4.60;2.40;;;;;;;;;;4855196;29;20037;-80
2023/05/29 11:05:20;;;;;;;4.95;2.33;;;;;;;;;;4879786;29;20404;-82
2023/05/29 11:08:12;;;;;;;5.20;2.75;;;;;;;;;;4878508;29;20049;-84
2023/05/29 11:10:55;;;;;;;6.20;2.70;;;;;;;;;;4875362;29;20524;-81
2023/05/29 11:13:30;;;;;;;5.40;2.78;;;;;;;;;;4887924;29;20028;-79
2023/05/29 11:16:15;;;;;;;6.97;2.78;;;;;;;;;;4888158;29;20057;-81
2023/05/29 11:18:47;;;;;;;4.65;2.40;;;;;;;;;;4869593;29;20464;-80
2023/05/29 11:21:37;;;;;;;4.75;2.65;;;;;;;;;;4884580;29;20033;-81
2023/05/29 11:24:04;;;;;;;6.47;2.72;;;;;;;;;;4886483;29;20032;-79
2023/05/29 11:26:30;;;;;;;4.63;2.55;;;;;;;;;;4880831;29;20156;-80
2023/05/29 11:29:04;;;;;;;5.25;2.42;;;;;;;;;;4893832;29;20067;-81
2023/05/29 11:31:32;;;;;;;4.63;2.40;;;;;;;;;;4873369;29;20499;-83
2023/05/29 11:34:19;;;;;;;3.17;2.17;;;;;;;;;;4885543;29;20040;-78
2023/05/29 11:36:44;;;;;;;4.00;2.35;;;;;;;;;;4877352;29;20032;-78
2023/05/29 11:39:10;;;;;;;5.38;2.25;;;;;;;;;;4881984;29;20108;-80
2023/05/29 11:41:35;;;;;;;3.30;2.47;;;;;;;;;;4885222;29;20059;-80
2023/05/29 11:44:03;;;;;;;4.93;2.50;;;;;;;;;;4902018;29;20039;-79
2023/05/29 11:46:32;;;;;;;2.95;2.17;;;;;;;;;;4894254;29;20038;-82
2023/05/29 11:49:01;;;;;;;4.38;2.65;;;;;;;;;;4893149;29;20025;-79
2023/05/29 11:51:27;;;;;;;4.13;2.30;;;;;;;;;;4893005;29;20116;-84
2023/05/29 11:54:01;;;;;;;4.43;2.40;;;;;;;;;;4871452;29;20052;-79
2023/05/29 11:56:28;;;;;;;5.05;2.72;;;;;;;;;;4878373;29;20115;-76
2023/05/29 11:58:59;;;;;;;6.82;2.92;;;;;;;;;;4868710;29;20038;-76
2023/05/29 12:01:28;;;;;;;6.38;2.22;;;;;;;;;;4895293;29;20093;-76
2023/05/29 12:03:53;;;;;;;3.97;2.30;;;;;;;;;;4874785;29;20033;-75
2023/05/29 12:06:37;;;;;;;3.90;2.63;;;;;;;;;;4881630;29;20025;-78
2023/05/29 12:09:27;;;;;;;4.80;2.60;;;;;;;;;;4884813;29;20033;-78
2023/05/29 12:12:02;;;;;;;3.03;2.17;;;;;;;;;;4884636;29;20647;-75
2023/05/29 12:14:28;;;;;;;3.17;2.15;;;;;;;;;;4877888;29;20116;-80
2023/05/29 12:16:53;;;;;;;11.48;2.42;;;;;;;;;;4886983;29;20079;-80
2023/05/29 12:19:19;;;;;;;3.95;2.20;;;;;;;;;;4862961;29;20033;-80
2023/05/29 12:21:45;;;;;;;3.22;2.40;;;;;;;;;;4868847;29;20044;-78
2023/05/29 12:24:10;;;;;;;3.83;2.53;;;;;;;;;;4885430;29;20041;-80
2023/05/29 12:30:01;;;;;;;;;;;;;;;;;;4904923;23;20059;-80
2023/05/29 12:32:54;;;;;;;4.38;2.20;;;;;;;;;;4918246;29;19923;-80
2023/05/29 12:35:24;;;;;;;4.78;2.15;;;;;;;;;;4900575;29;20522;-80
2023/05/29 12:37:54;;;;;;;4.82;2.58;;;;;;;;;;4891461;29;20025;-81
2023/05/29 12:40:21;;;;;;;4.28;2.53;;;;;;;;;;4900403;29;20028;-80
2023/05/29 12:42:48;;;;;;;5.00;2.30;;;;;;;;;;4922083;29;20489;-80
2023/05/29 12:45:14;;;;;;;4.15;2.20;;;;;;;;;;4901832;29;20436;-80
2023/05/29 12:48:06;;;;;;;3.95;2.50;;;;;;;;;;4894882;29;20031;-81
2023/05/29 12:50:33;;;;;;;3.78;2.63;;;;;;;;;;4900611;29;20041;-81
2023/05/29 12:53:15;;;;;;;4.72;2.60;;;;;;;;;;4908457;29;20024;-80
2023/05/29 12:55:42;;;;;;;7.72;2.50;;;;;;;;;;4926353;29;20031;-81
2023/05/29 12:58:12;;;;;;;9.88;2.40;;;;;;;;;;4902887;29;20802;-81
2023/05/29 13:00:40;;;;;;;2.67;2.25;;;;;;;;;;4903676;29;20044;-81
2023/05/29 13:03:50;;;;;;;4.18;2.25;;;;;;;;;;4901583;29;20029;-80
2023/05/29 13:06:15;;;;;;;4.63;2.40;;;;;;;;;;4909299;29;20021;-80
2023/05/29 13:08:41;;;;;;;3.75;2.53;;;;;;;;;;4900767;29;20036;-80
2023/05/29 13:11:06;;;;;;;3.13;2.30;;;;;;;;;;4916327;29;20059;-81
2023/05/29 13:13:31;;;;;;;4.32;2.50;;;;;;;;;;4918036;29;20043;-81
2023/05/29 13:15:57;;;;;;;5.65;2.47;;;;;;;;;;4912269;29;20038;-81
2023/05/29 13:18:25;;;;;;;3.72;2.47;;;;;;;;;;4903519;29;20036;-81
2023/05/29 13:20:50;;;;;;;3.65;2.50;;;;;;;;;;4906089;29;20572;-81
2023/05/29 13:23:16;;;;;;;5.32;2.42;;;;;;;;;;4903343;29;20029;-81
2023/05/29 13:25:41;;;;;;;3.92;2.30;;;;;;;;;;4906652;29;20036;-81
2023/05/29 13:28:06;;;;;;;5.07;2.42;;;;;;;;;;4905346;29;20029;-81
2023/05/29 13:30:50;;;;;;;5.72;2.60;;;;;;;;;;4902816;29;20041;-81
2023/05/29 13:33:15;;;;;;;3.22;2.15;;;;;;;;;;4894606;29;20075;-80
2023/05/29 13:35:40;;;;;;;4.07;2.50;;;;;;;;;;4901949;29;20040;-80
2023/05/29 13:38:06;;;;;;;2.58;2.10;;;;;;;;;;4900592;29;20123;-81
2023/05/29 13:40:31;;;;;;;4.25;2.30;;;;;;;;;;4905118;29;20032;-81
2023/05/29 13:43:00;;;;;;;4.28;2.33;;;;;;;;;;4908340;29;20037;-80
2023/05/29 13:45:27;;;;;;;4.40;2.70;;;;;;;;;;4903535;29;20044;-81
2023/05/29 13:53:06;;;;;;;5.30;2.55;;;;;;;;;;5174842;23;20051;-81
2023/05/29 13:55:31;;;;;;;3.67;2.22;;;;;;;;;;4941454;29;20743;-81
2023/05/29 13:57:57;;;;;;;4.15;2.20;;;;;;;;;;4949293;29;20433;-82
2023/05/29 14:00:23;;;;;;;3.75;2.50;;;;;;;;;;4960799;28;20417;-81
2023/05/29 14:02:48;;;;;;;3.78;2.42;;;;;;;;;;4961450;28;20031;-80
2023/05/29 14:05:14;;;;;;;3.20;2.55;;;;;;;;;;4957960;28;20166;-79
2023/05/29 14:07:39;;;;;;;4.97;2.30;;;;;;;;;;4961292;28;20024;-79
2023/05/29 14:10:05;;;;;;;7.03;2.10;;;;;;;;;;4957964;28;20023;-79
2023/05/29 14:12:36;;;;;;;4.88;2.40;;;;;;;;;;4973797;28;20453;-80
2023/05/29 14:15:02;;;;;;;3.97;2.25;;;;;;;;;;4966945;28;20027;-82
2023/05/29 14:17:30;;;;;;;2.58;2.20;;;;;;;;;;4956053;28;20031;-81
2023/05/29 14:19:56;;;;;;;3.67;2.08;;;;;;;;;;4954524;28;20039;-80
2023/05/29 14:22:21;;;;;;;3.10;2.25;;;;;;;;;;4956323;28;20042;-79
2023/05/29 14:24:47;;;;;;;3.33;2.20;;;;;;;;;;4949194;28;20042;-82
2023/05/29 14:27:12;;;;;;;5.90;2.95;;;;;;;;;;4962378;28;20078;-78
2023/05/29 14:29:37;;;;;;;3.60;2.20;;;;;;;;;;4945617;29;20023;-79
2023/05/29 14:32:03;;;;;;;4.22;2.42;;;;;;;;;;4960233;28;20423;-82
2023/05/29 14:34:31;;;;;;;4.47;2.30;;;;;;;;;;4967533;28;20437;-82
2023/05/29 14:36:56;;;;;;;3.65;2.03;;;;;;;;;;4956817;28;20065;-81
2023/05/29 14:39:22;;;;;;;4.22;2.20;;;;;;;;;;4968528;28;20023;-82
2023/05/29 14:41:47;;;;;;;3.20;2.20;;;;;;;;;;4963622;28;20087;-82
2023/05/29 14:44:13;;;;;;;4.13;2.20;;;;;;;;;;4957352;28;20040;-82
2023/05/29 14:46:39;;;;;;;9.07;2.25;;;;;;;;;;4955976;28;20039;-82
2023/05/29 14:49:05;;;;;;;4.53;2.55;;;;;;;;;;4962353;28;20099;-81
2023/05/29 14:51:30;;;;;;;4.00;2.20;;;;;;;;;;4964947;28;20039;-81
2023/05/29 14:53:56;;;;;;;4.38;2.42;;;;;;;;;;4971051;28;20077;-78
2023/05/29 14:56:21;;;;;;;2.72;2.22;;;;;;;;;;4955861;28;20030;-80
2023/05/29 14:58:50;;;;;;;3.33;2.05;;;;;;;;;;4951232;28;20439;-78
2023/05/29 15:01:16;;;;;;;4.63;2.17;;;;;;;;;;4960960;28;20027;-81